createdAt,value
2018-07-20T00:00:12.815Z,0.00
2018-07-20T00:01:12.830Z,0.00
2018-07-20T00:02:12.795Z,0.00
2018-07-20T00:03:12.783Z,0.00
2018-07-20T00:04:12.772Z,0.00
2018-07-20T00:05:12.764Z,0.00
2018-07-20T00:06:12.753Z,0.00
2018-07-20T00:07:12.757Z,0.00
2018-07-20T00:08:12.779Z,0.00
2018-07-20T00:09:12.720Z,0.00
2018-07-20T00:10:12.711Z,0.00
2018-07-20T00:11:12.697Z,0.00
2018-07-20T00:12:12.703Z,0.00
2018-07-20T00:13:12.679Z,0.00
2018-07-20T00:14:12.667Z,0.00
2018-07-20T00:15:12.654Z,0.00
2018-07-20T00:16:12.647Z,0.00
2018-07-20T00:17:12.648Z,0.00
2018-07-20T00:18:12.635Z,0.00
2018-07-20T00:19:12.612Z,0.00
2018-07-20T00:20:12.604Z,0.00
2018-07-20T00:21:12.591Z,0.00
2018-07-20T00:22:12.625Z,0.00
2018-07-20T00:23:12.570Z,0.00
2018-07-20T00:24:12.558Z,0.00
2018-07-20T00:25:12.549Z,0.00
2018-07-20T00:26:12.536Z,0.00
2018-07-20T00:27:12.528Z,0.00
2018-07-20T00:28:12.535Z,0.00
2018-07-20T00:29:12.510Z,0.00
2018-07-20T00:30:12.497Z,0.00
2018-07-20T00:31:12.484Z,0.00
2018-07-20T00:32:12.469Z,0.00
2018-07-20T00:33:12.464Z,0.00
2018-07-20T00:34:12.465Z,0.00
2018-07-20T00:35:12.441Z,0.00
2018-07-20T00:36:12.430Z,0.00
2018-07-20T00:37:12.417Z,0.00
2018-07-20T00:38:12.408Z,0.00
2018-07-20T00:39:12.408Z,0.00
2018-07-20T00:40:12.383Z,0.00
2018-07-20T00:41:12.424Z,0.00
2018-07-20T00:42:12.383Z,0.00
2018-07-20T00:43:12.390Z,0.00
2018-07-20T00:44:12.343Z,0.00
2018-07-20T00:45:12.330Z,0.00
2018-07-20T00:46:12.319Z,0.00
2018-07-20T00:47:12.307Z,0.00
2018-07-20T00:48:12.296Z,0.00
2018-07-20T00:49:12.317Z,0.00
2018-07-20T00:50:12.276Z,0.00
2018-07-20T00:51:12.268Z,0.00
2018-07-20T00:52:12.253Z,0.00
2018-07-20T00:53:12.240Z,0.00
2018-07-20T00:54:12.229Z,0.00
2018-07-20T00:55:12.260Z,0.00
2018-07-20T00:56:12.209Z,0.00
2018-07-20T00:57:12.198Z,0.00
2018-07-20T00:58:12.191Z,0.00
2018-07-20T00:59:12.176Z,0.00
2018-07-20T01:00:12.164Z,0.00
2018-07-20T01:01:12.166Z,0.00
2018-07-20T01:02:12.143Z,0.00
2018-07-20T01:03:12.132Z,0.00
2018-07-20T01:04:12.118Z,0.00
2018-07-20T01:05:12.106Z,0.00
2018-07-20T01:06:12.119Z,0.00
2018-07-20T01:07:12.085Z,0.00
2018-07-20T01:08:12.073Z,0.00
2018-07-20T01:09:12.065Z,0.00
2018-07-20T01:10:12.054Z,0.00
2018-07-20T01:11:12.043Z,0.00
2018-07-20T01:12:12.049Z,0.00
2018-07-20T01:13:12.020Z,0.00
2018-07-20T01:14:12.011Z,0.00
2018-07-20T01:15:11.997Z,0.00
2018-07-20T01:16:11.985Z,0.00
2018-07-20T01:17:11.975Z,0.00
2018-07-20T01:18:11.977Z,0.00
2018-07-20T01:19:11.952Z,0.00
2018-07-20T01:20:11.944Z,0.00
2018-07-20T01:21:11.943Z,0.00
2018-07-20T01:22:11.928Z,0.00
2018-07-20T01:23:11.911Z,0.00
2018-07-20T01:24:11.899Z,0.00
2018-07-20T01:25:11.888Z,0.00
2018-07-20T01:26:11.891Z,0.00
2018-07-20T01:27:11.884Z,0.00
2018-07-20T01:28:11.855Z,0.00
2018-07-20T01:29:11.844Z,0.00
2018-07-20T01:30:11.830Z,0.00
2018-07-20T01:31:11.821Z,0.00
2018-07-20T01:32:11.808Z,0.00
2018-07-20T01:33:11.813Z,0.00
2018-07-20T01:34:11.799Z,0.00
2018-07-20T01:35:11.776Z,0.00
2018-07-20T01:36:11.777Z,0.00
2018-07-20T01:37:11.752Z,0.00
2018-07-20T01:38:11.740Z,0.00
2018-07-20T01:39:11.745Z,0.00
2018-07-20T01:40:11.720Z,0.00
2018-07-20T01:41:11.708Z,0.00
2018-07-20T01:42:11.698Z,0.00
2018-07-20T01:43:11.725Z,0.00
2018-07-20T01:44:11.675Z,0.00
2018-07-20T01:45:11.666Z,0.00
2018-07-20T01:46:11.656Z,0.00
2018-07-20T01:47:11.646Z,0.00
2018-07-20T01:48:11.634Z,0.00
2018-07-20T01:49:11.639Z,0.00
2018-07-20T01:50:11.608Z,0.00
2018-07-20T01:51:11.599Z,0.00
2018-07-20T01:52:11.590Z,0.00
2018-07-20T01:53:11.578Z,0.00
2018-07-20T01:54:11.568Z,0.00
2018-07-20T01:55:11.569Z,0.00
2018-07-20T01:56:11.542Z,0.00
2018-07-20T01:57:11.553Z,0.00
2018-07-20T01:58:11.519Z,0.00
2018-07-20T01:59:11.508Z,0.00
2018-07-20T02:00:11.499Z,0.00
2018-07-20T02:01:11.490Z,0.00
2018-07-20T02:02:11.475Z,0.00
2018-07-20T02:03:11.480Z,0.00
2018-07-20T02:04:11.452Z,0.00
2018-07-20T02:05:11.441Z,0.00
2018-07-20T02:06:11.433Z,0.00
2018-07-20T02:07:11.440Z,0.00
2018-07-20T02:08:11.408Z,0.00
2018-07-20T02:09:11.396Z,0.00
2018-07-20T02:10:11.385Z,0.00
2018-07-20T02:11:11.376Z,0.00
2018-07-20T02:12:11.366Z,0.00
2018-07-20T02:13:11.371Z,0.00
2018-07-20T02:14:11.345Z,0.00
2018-07-20T02:15:11.334Z,0.00
2018-07-20T02:16:11.322Z,0.00
2018-07-20T02:17:11.313Z,0.00
2018-07-20T02:18:11.299Z,0.00
2018-07-20T02:19:11.303Z,0.00
2018-07-20T02:20:11.282Z,0.00
2018-07-20T02:21:11.267Z,0.00
2018-07-20T02:22:11.258Z,0.00
2018-07-20T02:23:11.247Z,0.00
2018-07-20T02:24:11.250Z,0.00
2018-07-20T02:25:11.228Z,0.00
2018-07-20T02:26:11.219Z,0.00
2018-07-20T02:27:11.205Z,0.00
2018-07-20T02:28:11.193Z,0.00
2018-07-20T02:29:11.225Z,0.00
2018-07-20T02:30:11.175Z,0.00
2018-07-20T02:31:11.161Z,0.00
2018-07-20T02:32:11.151Z,0.00
2018-07-20T02:33:11.140Z,0.00
2018-07-20T02:34:11.128Z,0.00
2018-07-20T02:35:11.137Z,0.00
2018-07-20T02:36:11.132Z,0.00
2018-07-20T02:37:11.098Z,0.00
2018-07-20T02:38:11.090Z,0.00
2018-07-20T02:39:11.075Z,0.00
2018-07-20T02:40:11.065Z,0.00
2018-07-20T02:41:11.055Z,0.00
2018-07-20T02:42:11.055Z,0.00
2018-07-20T02:43:11.031Z,0.00
2018-07-20T02:44:11.020Z,0.00
2018-07-20T02:45:11.009Z,0.00
2018-07-20T02:46:11.038Z,0.00
2018-07-20T02:47:10.988Z,4.00
2018-07-20T02:48:10.980Z,4.00
2018-07-20T02:49:10.966Z,0.00
2018-07-20T02:50:10.959Z,0.00
2018-07-20T02:51:10.948Z,4.00
2018-07-20T02:52:10.956Z,4.00
2018-07-20T02:53:10.924Z,4.00
2018-07-20T02:54:10.913Z,4.00
2018-07-20T02:55:10.903Z,4.00
2018-07-20T02:56:10.893Z,8.00
2018-07-20T02:57:10.884Z,8.00
2018-07-20T02:58:10.884Z,8.00
2018-07-20T02:59:10.860Z,8.00
2018-07-20T03:00:10.864Z,8.00
2018-07-20T03:01:10.839Z,12.00
2018-07-20T03:02:10.831Z,16.00
2018-07-20T03:03:10.833Z,16.00
2018-07-20T03:04:10.806Z,16.00
2018-07-20T03:05:10.807Z,20.00
2018-07-20T03:06:10.788Z,24.00
2018-07-20T03:07:10.777Z,24.00
2018-07-20T03:08:10.782Z,32.00
2018-07-20T03:09:10.821Z,32.00
2018-07-20T03:10:10.758Z,36.00
2018-07-20T03:11:10.733Z,44.00
2018-07-20T03:12:10.729Z,48.00
2018-07-20T03:13:10.725Z,52.00
2018-07-20T03:14:10.702Z,60.00
2018-07-20T03:15:10.694Z,68.00
2018-07-20T03:16:10.682Z,76.00
2018-07-20T03:17:10.674Z,84.00
2018-07-20T03:18:10.675Z,92.00
2018-07-20T03:19:10.651Z,104.00
2018-07-20T03:20:10.660Z,112.00
2018-07-20T03:21:10.693Z,128.00
2018-07-20T03:22:10.619Z,140.00
2018-07-20T03:23:10.608Z,148.00
2018-07-20T03:24:10.598Z,160.00
2018-07-20T03:25:10.585Z,168.00
2018-07-20T03:26:10.592Z,180.00
2018-07-20T03:27:10.563Z,192.00
2018-07-20T03:28:10.553Z,208.00
2018-07-20T03:29:10.543Z,228.00
2018-07-20T03:30:10.536Z,248.00
2018-07-20T03:31:10.574Z,264.00
2018-07-20T03:32:10.512Z,284.00
2018-07-20T03:33:10.502Z,300.00
2018-07-20T03:34:10.491Z,324.00
2018-07-20T03:35:10.479Z,352.00
2018-07-20T03:36:10.473Z,376.00
2018-07-20T03:37:10.493Z,400.00
2018-07-20T03:38:10.453Z,424.00
2018-07-20T03:39:10.440Z,448.00
2018-07-20T03:40:10.452Z,472.00
2018-07-20T03:41:10.416Z,496.00
2018-07-20T03:42:10.405Z,528.00
2018-07-20T03:43:10.394Z,556.00
2018-07-20T03:44:10.388Z,592.00
2018-07-20T03:45:10.376Z,624.00
2018-07-20T03:46:10.390Z,660.00
2018-07-20T03:47:10.354Z,688.00
2018-07-20T03:48:10.344Z,720.00
2018-07-20T03:49:10.334Z,752.00
2018-07-20T03:50:10.326Z,780.00
2018-07-20T03:51:10.312Z,812.00
2018-07-20T03:52:10.371Z,852.00
2018-07-20T03:53:10.290Z,888.00
2018-07-20T03:54:10.279Z,924.00
2018-07-20T03:55:10.269Z,968.00
2018-07-20T03:56:10.260Z,1012.00
2018-07-20T03:57:10.247Z,1060.00
2018-07-20T03:58:10.250Z,1100.00
2018-07-20T03:59:10.225Z,1140.00
2018-07-20T04:00:10.217Z,1184.00
2018-07-20T04:01:10.203Z,1232.00
2018-07-20T04:02:10.192Z,1284.00
2018-07-20T04:03:10.197Z,1340.00
2018-07-20T04:04:10.174Z,1400.00
2018-07-20T04:05:10.162Z,1452.00
2018-07-20T04:06:10.148Z,1496.00
2018-07-20T04:07:10.138Z,1536.00
2018-07-20T04:08:10.140Z,1572.00
2018-07-20T04:09:10.116Z,1596.00
2018-07-20T04:10:10.138Z,1632.00
2018-07-20T04:11:10.099Z,1680.00
2018-07-20T04:12:10.085Z,1720.00
2018-07-20T04:13:10.091Z,1780.00
2018-07-20T04:14:10.060Z,1836.00
2018-07-20T04:15:10.051Z,1892.00
2018-07-20T04:16:10.038Z,1948.00
2018-07-20T04:17:10.029Z,1996.00
2018-07-20T04:18:10.016Z,2036.00
2018-07-20T04:19:10.017Z,2088.00
2018-07-20T04:20:10.000Z,2140.00
2018-07-20T04:21:09.984Z,2180.00
2018-07-20T04:22:09.983Z,2236.00
2018-07-20T04:23:09.962Z,2320.00
2018-07-20T04:24:09.949Z,2408.00
2018-07-20T04:25:09.942Z,2480.00
2018-07-20T04:26:09.928Z,2560.00
2018-07-20T04:27:09.931Z,2664.00
2018-07-20T04:28:09.903Z,2776.00
2018-07-20T04:29:09.893Z,2900.00
2018-07-20T04:30:09.883Z,3012.00
2018-07-20T04:31:09.870Z,3100.00
2018-07-20T04:32:09.869Z,3184.00
2018-07-20T04:33:09.847Z,3288.00
2018-07-20T04:34:09.848Z,3396.00
2018-07-20T04:35:09.823Z,3508.00
2018-07-20T04:36:09.815Z,3628.00
2018-07-20T04:37:09.802Z,3724.00
2018-07-20T04:38:09.805Z,3780.00
2018-07-20T04:39:09.793Z,3824.00
2018-07-20T04:40:09.769Z,3896.00
2018-07-20T04:41:09.758Z,4004.00
2018-07-20T04:42:09.758Z,4120.00
2018-07-20T04:43:09.739Z,4244.00
2018-07-20T04:44:09.743Z,4336.00
2018-07-20T04:45:09.714Z,4424.00
2018-07-20T04:46:09.704Z,4480.00
2018-07-20T04:47:09.695Z,4500.00
2018-07-20T04:48:09.682Z,4548.00
2018-07-20T04:49:09.684Z,4588.00
2018-07-20T04:50:09.674Z,4616.00
2018-07-20T04:51:09.663Z,4700.00
2018-07-20T04:52:09.641Z,4800.00
2018-07-20T04:53:09.632Z,4856.00
2018-07-20T04:54:09.622Z,4864.00
2018-07-20T04:55:09.620Z,4820.00
2018-07-20T04:56:09.596Z,4772.00
2018-07-20T04:57:09.607Z,4756.00
2018-07-20T04:58:09.574Z,4780.00
2018-07-20T04:59:09.565Z,4796.00
2018-07-20T05:00:09.553Z,4828.00
2018-07-20T05:01:09.545Z,4872.00
2018-07-20T05:02:09.535Z,4952.00
2018-07-20T05:03:09.534Z,5056.00
2018-07-20T05:04:09.510Z,5176.00
2018-07-20T05:05:09.499Z,5300.00
2018-07-20T05:06:09.502Z,5416.00
2018-07-20T05:07:09.481Z,5456.00
2018-07-20T05:08:09.471Z,5408.00
2018-07-20T05:09:09.459Z,5292.00
2018-07-20T05:10:09.479Z,5176.00
2018-07-20T05:11:09.434Z,5064.00
2018-07-20T05:12:09.424Z,5036.00
2018-07-20T05:13:09.413Z,5088.00
2018-07-20T05:14:09.405Z,5172.00
2018-07-20T05:15:09.394Z,5276.00
2018-07-20T05:16:09.391Z,5424.00
2018-07-20T05:17:09.389Z,5548.00
2018-07-20T05:18:09.358Z,5696.00
2018-07-20T05:19:09.351Z,5880.00
2018-07-20T05:20:09.338Z,6080.00
2018-07-20T05:21:09.329Z,6268.00
2018-07-20T05:22:09.320Z,6388.00
2018-07-20T05:23:09.324Z,6472.00
2018-07-20T05:24:09.409Z,6572.00
2018-07-20T05:25:09.284Z,6696.00
2018-07-20T05:26:09.273Z,6852.00
2018-07-20T05:27:09.262Z,7056.00
2018-07-20T05:28:09.257Z,7156.00
2018-07-20T05:29:09.242Z,7128.00
2018-07-20T05:30:09.240Z,7048.00
2018-07-20T05:31:09.222Z,6960.00
2018-07-20T05:32:09.207Z,6916.00
2018-07-20T05:33:09.199Z,6884.00
2018-07-20T05:34:09.225Z,6860.00
2018-07-20T05:35:09.175Z,6924.00
2018-07-20T05:36:09.166Z,7068.00
2018-07-20T05:37:09.157Z,7296.00
2018-07-20T05:38:09.251Z,7592.00
2018-07-20T05:39:09.134Z,7864.00
2018-07-20T05:40:09.158Z,8092.00
2018-07-20T05:41:09.109Z,8256.00
2018-07-20T05:42:09.100Z,8352.00
2018-07-20T05:43:09.090Z,8460.00
2018-07-20T05:44:09.088Z,8584.00
2018-07-20T05:45:09.066Z,8760.00
2018-07-20T05:46:09.069Z,8940.00
2018-07-20T05:47:09.058Z,9064.00
2018-07-20T05:48:09.036Z,9180.00
2018-07-20T05:49:09.023Z,9268.00
2018-07-20T05:50:09.017Z,9284.00
2018-07-20T05:51:09.008Z,9296.00
2018-07-20T05:52:09.004Z,9388.00
2018-07-20T05:53:08.982Z,9492.00
2018-07-20T05:54:08.972Z,9668.00
2018-07-20T05:55:08.963Z,9848.00
2018-07-20T05:56:08.954Z,9988.00
2018-07-20T05:57:08.957Z,10088.00
2018-07-20T05:58:08.929Z,10148.00
2018-07-20T05:59:08.937Z,10144.00
2018-07-20T06:00:08.904Z,10140.00
2018-07-20T06:01:08.895Z,10120.00
2018-07-20T06:02:08.881Z,10024.00
2018-07-20T06:03:08.878Z,9912.00
2018-07-20T06:04:08.899Z,9840.00
2018-07-20T06:05:08.867Z,9812.00
2018-07-20T06:06:08.839Z,9884.00
2018-07-20T06:07:08.828Z,10072.00
2018-07-20T06:08:08.822Z,10308.00
2018-07-20T06:09:08.808Z,10500.00
2018-07-20T06:10:08.809Z,10708.00
2018-07-20T06:11:08.791Z,10928.00
2018-07-20T06:12:08.779Z,11148.00
2018-07-20T06:13:08.764Z,11444.00
2018-07-20T06:14:08.789Z,11756.00
2018-07-20T06:15:08.755Z,11896.00
2018-07-20T06:16:08.748Z,12032.00
2018-07-20T06:17:08.722Z,12224.00
2018-07-20T06:18:08.714Z,12344.00
2018-07-20T06:19:08.705Z,12400.00
2018-07-20T06:20:08.691Z,12532.00
2018-07-20T06:21:08.692Z,12628.00
2018-07-20T06:22:08.669Z,12780.00
2018-07-20T06:23:08.659Z,12908.00
2018-07-20T06:24:08.653Z,12928.00
2018-07-20T06:25:08.638Z,12956.00
2018-07-20T06:26:08.643Z,12996.00
2018-07-20T06:27:08.632Z,13116.00
2018-07-20T06:28:08.607Z,13356.00
2018-07-20T06:29:08.600Z,13768.00
2018-07-20T06:30:08.600Z,14136.00
2018-07-20T06:31:08.577Z,14304.00
2018-07-20T06:32:08.578Z,14372.00
2018-07-20T06:33:08.556Z,14436.00
2018-07-20T06:34:08.545Z,14484.00
2018-07-20T06:35:08.537Z,14520.00
2018-07-20T06:36:08.525Z,14648.00
2018-07-20T06:37:08.527Z,14976.00
2018-07-20T06:38:08.506Z,15384.00
2018-07-20T06:39:08.492Z,15740.00
2018-07-20T06:40:08.499Z,16020.00
2018-07-20T06:41:08.475Z,16212.00
2018-07-20T06:42:08.465Z,16324.00
2018-07-20T06:43:08.463Z,16324.00
2018-07-20T06:44:08.439Z,16212.00
2018-07-20T06:45:08.429Z,16312.00
2018-07-20T06:46:08.434Z,16604.00
2018-07-20T06:47:08.411Z,17088.00
2018-07-20T06:48:08.397Z,17664.00
2018-07-20T06:49:08.387Z,18304.00
2018-07-20T06:50:08.395Z,19200.00
2018-07-20T06:51:08.367Z,19648.00
2018-07-20T06:52:08.357Z,19872.00
2018-07-20T06:53:08.345Z,20160.00
2018-07-20T06:54:08.335Z,20416.00
2018-07-20T06:55:08.321Z,20928.00
2018-07-20T06:56:08.330Z,21280.00
2018-07-20T06:57:08.300Z,21472.00
2018-07-20T06:58:08.291Z,21664.00
2018-07-20T06:59:08.277Z,21600.00
2018-07-20T07:00:08.265Z,22496.00
2018-07-20T07:01:08.261Z,20160.00
2018-07-20T07:02:08.267Z,22144.00
2018-07-20T07:03:08.236Z,25024.00
2018-07-20T07:04:08.223Z,20832.00
2018-07-20T07:05:08.214Z,19776.00
2018-07-20T07:06:08.202Z,21056.00
2018-07-20T07:07:08.193Z,23584.00
2018-07-20T07:08:08.209Z,22080.00
2018-07-20T07:09:08.169Z,21888.00
2018-07-20T07:10:08.158Z,23008.00
2018-07-20T07:11:08.144Z,27584.00
2018-07-20T07:12:08.134Z,26560.00
2018-07-20T07:13:08.136Z,38496.00
2018-07-20T07:14:08.110Z,39968.00
2018-07-20T07:15:08.163Z,40192.00
2018-07-20T07:16:08.089Z,38496.00
2018-07-20T07:17:08.101Z,30144.00
2018-07-20T07:18:08.068Z,32000.00
2018-07-20T07:19:08.060Z,37504.00
2018-07-20T07:20:08.047Z,38592.00
2018-07-20T07:21:08.040Z,39072.00
2018-07-20T07:22:08.058Z,40800.00
2018-07-20T07:23:08.037Z,30368.00
2018-07-20T07:24:08.028Z,38880.00
2018-07-20T07:25:08.002Z,34912.00
2018-07-20T07:26:07.983Z,33088.00
2018-07-20T07:27:07.975Z,42336.00
2018-07-20T07:28:07.962Z,43008.00
2018-07-20T07:29:07.965Z,45056.00
2018-07-20T07:30:07.980Z,45600.00
2018-07-20T07:31:07.930Z,42336.00
2018-07-20T07:32:07.925Z,26592.00
2018-07-20T07:33:07.912Z,28672.00
2018-07-20T07:34:07.906Z,29440.00
2018-07-20T07:35:07.891Z,30560.00
2018-07-20T07:36:07.895Z,46112.00
2018-07-20T07:37:07.867Z,47680.00
2018-07-20T07:38:07.858Z,46336.00
2018-07-20T07:39:07.846Z,45216.00
2018-07-20T07:40:07.835Z,47680.00
2018-07-20T07:41:07.852Z,47808.00
2018-07-20T07:42:07.871Z,46912.00
2018-07-20T07:43:07.810Z,51296.00
2018-07-20T07:44:07.793Z,50880.00
2018-07-20T07:45:07.784Z,51072.00
2018-07-20T07:46:07.772Z,53280.00
2018-07-20T07:47:07.778Z,51872.00
2018-07-20T07:48:07.757Z,50848.00
2018-07-20T07:49:07.741Z,52128.00
2018-07-20T07:50:07.733Z,52480.00
2018-07-20T07:51:07.721Z,54048.00
2018-07-20T07:52:07.730Z,54560.00
2018-07-20T07:53:07.700Z,55936.00
2018-07-20T07:54:07.688Z,56384.00
2018-07-20T07:55:07.682Z,57440.00
2018-07-20T07:56:07.669Z,56992.00
2018-07-20T07:57:07.660Z,56384.00
2018-07-20T07:58:07.661Z,56096.00
2018-07-20T07:59:07.637Z,55648.00
2018-07-20T08:00:07.627Z,57760.00
2018-07-20T08:01:07.619Z,57248.00
2018-07-20T08:02:07.608Z,56032.00
2018-07-20T08:03:07.637Z,54368.00
2018-07-20T08:04:07.584Z,54336.00
2018-07-20T08:05:07.577Z,54720.00
2018-07-20T08:06:07.568Z,55936.00
2018-07-20T08:07:07.568Z,58912.00
2018-07-20T08:08:07.543Z,59072.00
2018-07-20T08:09:07.534Z,59136.00
2018-07-20T08:10:07.673Z,60000.00
2018-07-20T08:11:07.527Z,58976.00
2018-07-20T08:12:07.505Z,56576.00
2018-07-20T08:13:07.495Z,55168.00
2018-07-20T08:14:07.483Z,55712.00
2018-07-20T08:15:07.477Z,58240.00
2018-07-20T08:16:07.482Z,59936.00
2018-07-20T08:17:07.455Z,57472.00
2018-07-20T08:18:07.445Z,55712.00
2018-07-20T08:19:07.434Z,61760.00
2018-07-20T08:20:07.424Z,65696.00
2018-07-20T08:21:07.413Z,66400.00
2018-07-20T08:22:07.415Z,64192.00
2018-07-20T08:23:07.392Z,70240.00
2018-07-20T08:24:07.382Z,75264.00
2018-07-20T08:25:07.371Z,78560.00
2018-07-20T08:26:07.360Z,61600.00
2018-07-20T08:27:07.366Z,42592.00
2018-07-20T08:28:07.355Z,45504.00
2018-07-20T08:29:07.332Z,68672.00
2018-07-20T08:30:07.317Z,82848.00
2018-07-20T08:31:07.308Z,80672.00
2018-07-20T08:32:07.296Z,76096.00
2018-07-20T08:33:07.289Z,74464.00
2018-07-20T08:34:07.292Z,69248.00
2018-07-20T08:35:07.266Z,69856.00
2018-07-20T08:36:07.259Z,71808.00
2018-07-20T08:37:07.250Z,72736.00
2018-07-20T08:38:07.240Z,72256.00
2018-07-20T08:39:07.242Z,71488.00
2018-07-20T08:40:07.219Z,72896.00
2018-07-20T08:41:07.258Z,71840.00
2018-07-20T08:42:07.197Z,70976.00
2018-07-20T08:43:07.189Z,73664.00
2018-07-20T08:44:07.193Z,72768.00
2018-07-20T08:45:07.165Z,72640.00
2018-07-20T08:46:07.163Z,74208.00
2018-07-20T08:47:07.146Z,77824.00
2018-07-20T08:48:07.139Z,78816.00
2018-07-20T08:49:07.142Z,73760.00
2018-07-20T08:50:07.143Z,73120.00
2018-07-20T08:51:07.110Z,72576.00
2018-07-20T08:52:07.098Z,74432.00
2018-07-20T08:53:07.091Z,76960.00
2018-07-20T08:54:07.132Z,77376.00
2018-07-20T08:55:07.072Z,76288.00
2018-07-20T08:56:07.070Z,74240.00
2018-07-20T08:57:07.045Z,75968.00
2018-07-20T08:58:07.038Z,78176.00
2018-07-20T08:59:07.111Z,77248.00
2018-07-20T09:00:07.017Z,75136.00
2018-07-20T09:01:07.045Z,76448.00
2018-07-20T09:02:06.998Z,78176.00
2018-07-20T09:03:06.989Z,79040.00
2018-07-20T09:04:06.977Z,76576.00
2018-07-20T09:05:06.968Z,75616.00
2018-07-20T09:06:06.960Z,75008.00
2018-07-20T09:07:06.962Z,76800.00
2018-07-20T09:08:06.937Z,75936.00
2018-07-20T09:09:06.935Z,76320.00
2018-07-20T09:10:06.917Z,77728.00
2018-07-20T09:11:06.915Z,77120.00
2018-07-20T09:12:06.917Z,79232.00
2018-07-20T09:13:06.888Z,78848.00
2018-07-20T09:14:06.880Z,80480.00
2018-07-20T09:15:06.871Z,81152.00
2018-07-20T09:16:06.858Z,81728.00
2018-07-20T09:17:06.849Z,81792.00
2018-07-20T09:18:06.857Z,81984.00
2018-07-20T09:19:06.830Z,83008.00
2018-07-20T09:20:06.824Z,90656.00
2018-07-20T09:21:06.818Z,92704.00
2018-07-20T09:22:06.802Z,86976.00
2018-07-20T09:23:06.790Z,83232.00
2018-07-20T09:24:06.798Z,83840.00
2018-07-20T09:25:06.770Z,87680.00
2018-07-20T09:26:06.761Z,89088.00
2018-07-20T09:27:06.753Z,87616.00
2018-07-20T09:28:06.744Z,89312.00
2018-07-20T09:29:06.748Z,89664.00
2018-07-20T09:30:06.722Z,89152.00
2018-07-20T09:31:06.712Z,90592.00
2018-07-20T09:32:06.706Z,90560.00
2018-07-20T09:33:06.696Z,90208.00
2018-07-20T09:34:06.714Z,87680.00
2018-07-20T09:35:06.673Z,85920.00
2018-07-20T09:36:06.663Z,82752.00
2018-07-20T09:37:06.654Z,85600.00
2018-07-20T09:38:06.647Z,89440.00
2018-07-20T09:39:06.635Z,92288.00
2018-07-20T09:40:06.651Z,91808.00
2018-07-20T09:41:06.617Z,89760.00
2018-07-20T09:42:06.609Z,91136.00
2018-07-20T09:43:06.600Z,90528.00
2018-07-20T09:44:06.585Z,92672.00
2018-07-20T09:45:06.576Z,94880.00
2018-07-20T09:46:06.590Z,95904.00
2018-07-20T09:47:06.561Z,95392.00
2018-07-20T09:48:06.546Z,93920.00
2018-07-20T09:49:06.545Z,92704.00
2018-07-20T09:50:06.529Z,91648.00
2018-07-20T09:51:06.526Z,88544.00
2018-07-20T09:52:06.532Z,92000.00
2018-07-20T09:53:06.503Z,96640.00
2018-07-20T09:54:06.502Z,97568.00
2018-07-20T09:55:06.479Z,96224.00
2018-07-20T09:56:06.468Z,96128.00
2018-07-20T09:57:06.463Z,98816.00
2018-07-20T09:58:06.470Z,97824.00
2018-07-20T09:59:06.442Z,97184.00
2018-07-20T10:00:06.433Z,66048.00
2018-07-20T10:01:06.421Z,92416.00
2018-07-20T10:02:06.411Z,95808.00
2018-07-20T10:03:06.425Z,96256.00
2018-07-20T10:04:06.394Z,91328.00
2018-07-20T10:05:06.510Z,94912.00
2018-07-20T10:06:06.372Z,94720.00
2018-07-20T10:07:06.364Z,93504.00
2018-07-20T10:08:06.353Z,94048.00
2018-07-20T10:09:06.375Z,93824.00
2018-07-20T10:10:06.336Z,88288.00
2018-07-20T10:11:06.328Z,82912.00
2018-07-20T10:12:06.320Z,85184.00
2018-07-20T10:13:06.309Z,91200.00
2018-07-20T10:14:06.302Z,94944.00
2018-07-20T10:15:06.305Z,94784.00
2018-07-20T10:16:06.282Z,95200.00
2018-07-20T10:17:06.272Z,97952.00
2018-07-20T10:18:06.269Z,98720.00
2018-07-20T10:19:06.313Z,99584.00
2018-07-20T10:20:06.245Z,98560.00
2018-07-20T10:21:06.249Z,95840.00
2018-07-20T10:22:06.228Z,94688.00
2018-07-20T10:23:06.219Z,92928.00
2018-07-20T10:24:06.213Z,93440.00
2018-07-20T10:25:06.198Z,92192.00
2018-07-20T10:26:06.235Z,94240.00
2018-07-20T10:27:06.180Z,95104.00
2018-07-20T10:28:06.174Z,97984.00
2018-07-20T10:29:06.166Z,91424.00
2018-07-20T10:30:06.156Z,97088.00
2018-07-20T10:31:06.146Z,93216.00
2018-07-20T10:32:06.148Z,95040.00
2018-07-20T10:33:06.126Z,89760.00
2018-07-20T10:34:06.117Z,87456.00
2018-07-20T10:35:06.112Z,96160.00
2018-07-20T10:36:06.117Z,98592.00
2018-07-20T10:37:06.097Z,96320.00
2018-07-20T10:38:06.085Z,97184.00
2018-07-20T10:39:06.073Z,98752.00
2018-07-20T10:40:06.064Z,102336.00
2018-07-20T10:41:06.056Z,100928.00
2018-07-20T10:42:06.062Z,96576.00
2018-07-20T10:43:06.077Z,93504.00
2018-07-20T10:44:06.028Z,88064.00
2018-07-20T10:45:06.017Z,85120.00
2018-07-20T10:46:06.012Z,87360.00
2018-07-20T10:47:06.024Z,81920.00
2018-07-20T10:48:05.996Z,75680.00
2018-07-20T10:49:05.986Z,86624.00
2018-07-20T10:50:05.968Z,91680.00
2018-07-20T10:51:05.960Z,92512.00
2018-07-20T10:52:05.985Z,91008.00
2018-07-20T10:53:05.953Z,94176.00
2018-07-20T10:54:05.934Z,95104.00
2018-07-20T10:55:05.938Z,99488.00
2018-07-20T10:56:05.912Z,100896.00
2018-07-20T10:57:05.903Z,98432.00
2018-07-20T10:58:05.892Z,100224.00
2018-07-20T10:59:05.882Z,100768.00
2018-07-20T11:00:05.872Z,99840.00
2018-07-20T11:01:05.876Z,96256.00
2018-07-20T11:02:05.870Z,98656.00
2018-07-20T11:03:05.847Z,91648.00
2018-07-20T11:04:05.835Z,90176.00
2018-07-20T11:05:05.863Z,95584.00
2018-07-20T11:06:05.820Z,97216.00
2018-07-20T11:07:05.807Z,100704.00
2018-07-20T11:08:05.849Z,100160.00
2018-07-20T11:09:05.790Z,96416.00
2018-07-20T11:10:05.773Z,93120.00
2018-07-20T11:11:05.777Z,87584.00
2018-07-20T11:12:05.754Z,87232.00
2018-07-20T11:13:05.759Z,91936.00
2018-07-20T11:14:05.733Z,97056.00
2018-07-20T11:15:05.748Z,100640.00
2018-07-20T11:16:05.713Z,101536.00
2018-07-20T11:17:05.707Z,100384.00
2018-07-20T11:18:05.732Z,94880.00
2018-07-20T11:19:05.688Z,97696.00
2018-07-20T11:20:05.675Z,95392.00
2018-07-20T11:21:05.668Z,96256.00
2018-07-20T11:22:05.656Z,94944.00
2018-07-20T11:23:05.648Z,89440.00
2018-07-20T11:24:05.653Z,94144.00
2018-07-20T11:25:05.629Z,90112.00
2018-07-20T11:26:05.619Z,92928.00
2018-07-20T11:27:05.611Z,91584.00
2018-07-20T11:28:05.629Z,90784.00
2018-07-20T11:29:05.607Z,91552.00
2018-07-20T11:30:05.583Z,92032.00
2018-07-20T11:31:05.573Z,95488.00
2018-07-20T11:32:05.577Z,95712.00
2018-07-20T11:33:05.551Z,97760.00
2018-07-20T11:34:05.563Z,97888.00
2018-07-20T11:35:05.533Z,101920.00
2018-07-20T11:36:05.522Z,94816.00
2018-07-20T11:37:05.513Z,97408.00
2018-07-20T11:38:05.506Z,94176.00
2018-07-20T11:39:05.495Z,96160.00
2018-07-20T11:40:05.496Z,97216.00
2018-07-20T11:41:05.489Z,97824.00
2018-07-20T11:42:05.470Z,98976.00
2018-07-20T11:43:05.455Z,90656.00
2018-07-20T11:44:05.445Z,99008.00
2018-07-20T11:45:05.437Z,97696.00
2018-07-20T11:46:05.448Z,99648.00
2018-07-20T11:47:05.418Z,96640.00
2018-07-20T11:48:05.408Z,98528.00
2018-07-20T11:49:05.397Z,94624.00
2018-07-20T11:50:05.389Z,91328.00
2018-07-20T11:51:05.379Z,82208.00
2018-07-20T11:52:05.392Z,91552.00
2018-07-20T11:53:05.360Z,82400.00
2018-07-20T11:54:05.351Z,74560.00
2018-07-20T11:55:05.344Z,66688.00
2018-07-20T11:56:05.339Z,74624.00
2018-07-20T11:57:05.321Z,84320.00
2018-07-20T11:58:05.360Z,86752.00
2018-07-20T11:59:05.305Z,89056.00
2018-07-20T12:00:05.293Z,92416.00
2018-07-20T12:01:05.287Z,95424.00
2018-07-20T12:02:05.275Z,94976.00
2018-07-20T12:03:05.266Z,92736.00
2018-07-20T12:04:05.274Z,87712.00
2018-07-20T12:05:05.249Z,87968.00
2018-07-20T12:06:05.243Z,87648.00
2018-07-20T12:07:05.230Z,89568.00
2018-07-20T12:08:05.224Z,95648.00
2018-07-20T12:09:05.259Z,92320.00
2018-07-20T12:10:05.204Z,90848.00
2018-07-20T12:11:05.196Z,91488.00
2018-07-20T12:12:05.186Z,92416.00